Tiempo atmosférico en la estación meteorológica de Sa Pobla, Illes Balears (40 m.)



Fecha
DESCASC
Temp. máxima en grados centígrados (hora)
DESCASC
Temp. mínima en grados centígrados (hora)
DESCASC
Temp. media en grados centígrados
DESCASC
Racha de viento máxima en m/sg (hora)
DESCASC
Velocidad máxima media en intervalos de 10 minutos(hora)
DESCASC
Precipitaciones diarias en mm
DESCASC
Precipitaciones de 00:00 a 06:00 en mm
DESCASC
Precipitaciones de 06:00 a 12:00 en mm
DESCASC
Precipitaciones de 12:00 a 18:00 en mm
DESCASC
Precipitaciones de 18:00 a 24:00 en mm
DESCASC
25-04-2019 20.2 (12:20) 12.5 (02:20) 16.4 13.06 (15:00) 5.83 (12:30) 0 0 0 0 0
24-04-2019 20.7 (17:30) 10.9 (07:20) 15.8 13.06 (03:20) 6.94 (14:10) 0.4 0.2 0 0.2 0
23-04-2019 22.9 (16:10) 13.3 (07:30) 18.1 14.44 (19:00) 6.94 (19:00) 0 0 0 0 0
22-04-2019 15.2 (11:50) 13.3 (00:00) 14.3 14.72 (05:40) 9.44 (06:30) 1 0.8 0.2 0 0
21-04-2019 16.5 (15:40) 13.7 (00:00) 15.1 14.17 (22:30) 8.06 (22:30) 2.2 0 0.4 0.2 1.6
20-04-2019 19.8 (15:20) 15 (00:00) 17.4 16.39 (15:40) 9.17 (15:20) 0 0 0 0 0
19-04-2019 17.2 (15:10) 14.6 (00:00) 15.9 12.22 (14:40) 7.78 (16:00) 0.2 0 0.2 0 0
18-04-2019 21.8 (14:40) 11.6 (00:00) 16.7 10.28 (13:00) 5.83 (13:40) 0 0 0 0 0
17-04-2019 22.2 (16:20) 7.3 (00:00) 14.8 8.61 (16:40) 5.83 (15:00) 0 0 0 0 0
16-04-2019 22.7 (14:00) 8.8 (00:00) 15.8 8.89 (16:00) 5.28 (17:10) 0.4 0 0.4 0 0
15-04-2019 22.1 (14:50) 8.1 (00:00) 15.1 8.61 (13:40) 5 (16:10) 0 0 0 0 0
14-04-2019 25.8 (13:40) 8.4 (00:00) 17.1 9.44 (14:00) 5.56 (14:10) 0 0 0 0 0
13-04-2019 22.1 (13:50) 6.3 (00:00) 14.2 8.33 (14:50) 4.44 (14:50) 0 0 0 0 0
12-04-2019 19.5 (14:30) 9.5 (00:00) 14.5 10.28 (09:20) 5.28 (09:20) 0.2 0 0.2 0 0
11-04-2019 21.7 (15:30) 9.2 (00:00) 15.5 9.72 (17:10) 4.72 (13:40) 0.2 0 0 0 0.2
10-04-2019 20.3 (16:30) 8.9 (00:00) 14.6 8.33 (18:20) 5.28 (18:20) 10.8 0 10.8 0 0
09-04-2019 20.3 (16:20) 11.7 (00:00) 16 10.83 (12:00) 6.11 (12:00) 1.6 0 1.6 0 0
08-04-2019 21.7 (17:00) 4.7 (00:00) 13.2 10.83 (14:30) 5.83 (14:30) 0 0 0 0 0
07-04-2019 17 (13:00) 6.2 (00:00) 11.6 11.39 (15:20) 5.56 (14:40) 0.4 0 0.4 0 0
06-04-2019 17.7 (16:20) 7.9 (00:00) 12.8 11.11 (16:30) 5.83 (18:00) 2.8 2.6 0.2 0 0
05-04-2019 19.9 (13:50) 2.4 (00:00) 11.1 11.11 (14:20) 6.11 (15:00) 1.2 0 0 0.4 0.8
04-04-2019 17.5 (17:10) 7.9 (00:00) 12.7 11.11 (00:30) 6.39 (00:30) 1 1 0 0 0
03-04-2019 21.3 (15:30) 11.2 (00:00) 16.2 12.22 (23:20) 6.39 (23:20) 0 0 0 0 0
02-04-2019 22.1 (15:20) 6.3 (00:00) 14.2 8.89 (12:00) 4.72 (11:50) 0 0 0 0 0
01-04-2019 19.6 (17:20) 10 (00:00) 14.8 6.94 (13:10) 3.89 (13:20) 0 0 0 0 0
31-03-2019 19.4 (14:00) 8.5 (00:00) 13.9 7.5 (14:40) 5 (14:40) 1.2 0 0 0 1.2
30-03-2019 18.6 (12:30) 5.7 (00:00) 12.2 8.89 (14:00) 5 (13:30) 0 0 0 0 0
29-03-2019 18.3 (14:40) 2.6 (00:00) 10.4 8.33 (11:10) 5 (17:40) 0 0 0 0 0
28-03-2019 18.5 (14:20) 4.3 (00:00) 11.4 9.44 (11:20) 6.39 (11:00) 0 0 0 0 0
27-03-2019 16.9 (13:30) 3.6 (00:00) 10.2 12.78 (04:50) 7.78 (05:00) 0 0 0 0 0

Gráficas

Temp. máximas Temp. mínimas Temp. medias Precipitaciones Rachas de viento máximas Velocidades máximas media en intervalos de 10 minutos

Datos horarios

Fecha y hora oficial Temperatura (ºC) Velocidad del viento (km/h) Dirección del viento Racha (km/h) Dirección de racha Precipitación (mm) Presión (hPa) Tendencia (hPa) Humedad (%)
2019-04-25 23:00:00 14.8 6 Sur 15 Sur 0 1011.6 1.6 89
2019-04-25 22:00:00 15.4 5 Sur 25 Sur 0 1010.8 1.1 83
2019-04-25 21:00:00 16.2 12 Sur 27 Sur 0 1010.6 1.1 80
2019-04-25 20:00:00 17.3 15 Sudoeste 39 Sudoeste 0 1010 0.2 74
2019-04-25 19:00:00 17.8 17 Sudoeste 40 Sudoeste 0 1009.7 -0.2 69
2019-04-25 18:00:00 17.9 21 Sudoeste 45 Sudoeste 0 1009.5 -1 66
2019-04-25 17:00:00 17.9 17 Sur 41 Sudoeste 0 1009.8 -0.8 65
2019-04-25 16:00:00 18 20 Sur 45 Sudoeste 0 1009.9 -1.1 67
2019-04-25 15:00:00 17.7 21 Sudoeste -- -- 0 1010.5 -0.2 67
2019-04-25 14:00:00 17.7 18 Sur 42 Sur 0 1010.6 0.1 67
2019-04-25 13:00:00 18.6 15 Sudoeste -- -- -- 1011 0.7 63
2019-04-25 12:00:00 19.4 19 Sudoeste 40 Sudoeste 0 1010.7 0.6 60
2019-04-25 11:00:00 18.5 17 Sur 40 Sur 0 1010.5 0.6 64
2019-04-25 10:00:00 17.3 15 Sur 27 Sudoeste 0 1010.3 0.9 72
2019-04-25 09:00:00 15 8 Sudoeste 16 Sudoeste 0 1010.1 0.7 87
2019-04-25 08:00:00 13.6 7 Sudoeste 15 Sudoeste 0 1009.9 0.4 91
2019-04-25 07:00:00 13.1 7 Sudoeste 21 Sudoeste 0 1009.4 -0.4 90
2019-04-25 06:00:00 12.9 10 Sudoeste 21 Sudoeste 0 1009.4 -0.8 93
2019-04-25 05:00:00 12.8 6 Sudoeste 20 Sudoeste 0 1009.5 -1.4 93
2019-04-25 04:00:00 12.8 9 Sur 22 Sudoeste 0 1009.8 -0.9 93
2019-04-25 03:00:00 12.9 11 Sudoeste 21 Sudoeste 0 1010.2 0.1 93
2019-04-25 02:00:00 12.7 9 Sur 19 Sur 0 1010.9 0.5 91
2019-04-25 01:00:00 13.1 12 Sur 25 Sur 0 1010.7 0.6 88
2019-04-25 00:00:00 13.9 11 Sudoeste 22 Sudoeste 0 1010.1 0.9 82
2019-04-24 23:00:00 14.3 9 Sur 19 Sudoeste 0 1010.4 1.7 78
2019-04-24 22:00:00 14.8 10 Sur 21 Sudoeste 0 1010.1 1.6 72
2019-04-24 21:00:00 15.3 12 Sudoeste 32 Sudoeste 0 1009.2 1 64
2019-04-24 20:00:00 17.7 13 Sudoeste 37 Sudoeste 0 1008.7 0.8 49
2019-04-24 19:00:00 18.7 18 Sudoeste 36 Sudoeste 0 1008.5 0.4 43
2019-04-24 18:00:00 19.5 21 Sudoeste 41 Sudoeste 0 1008.2 -0.1 39
2019-04-24 17:00:00 20.4 17 Sudoeste 41 Sudoeste 0 1007.9 -0.4 37
2019-04-24 16:00:00 20.3 20 Sudoeste 42 Sudoeste 0 1008.1 -0.3 38
2019-04-24 15:00:00 19.9 22 Sur 46 Sudoeste 0 1008.3 0.3 38
2019-04-24 14:00:00 19.9 23 Sudoeste 45 Sudoeste 0 1008.3 1.2 37
2019-04-24 13:00:00 19.1 22 Sudoeste 46 Sudoeste 0.2 1008.4 2.2 41
2019-04-24 12:00:00 18.6 22 Sudoeste 46 Sudoeste 0 1008 2.6 43
2019-04-24 11:00:00 17.8 21 Sudoeste 46 Sudoeste 0 1007.1 2.3 43
2019-04-24 10:00:00 16.6 21 Sudoeste 38 Sur 0 1006.2 2.8 50
2019-04-24 09:00:00 14.4 15 Sudoeste 29 Sudoeste 0 1005.4 2.9 67
2019-04-24 08:00:00 11.7 8 Sudoeste 19 Sur 0 1004.8 2.8 84
2019-04-24 07:00:00 11.3 8 Sudoeste 18 Sur 0 1003.4 2 85
2019-04-24 06:00:00 12.6 8 Sudoeste 24 Sur 0 1002.5 1.3 84
2019-04-24 05:00:00 14.7 11 Sudoeste 37 Sur 0.2 1002 0.4 82
2019-04-24 04:00:00 14.9 19 Sur 47 Sur 0 1001.4 -0.1 77
2019-04-24 03:00:00 15.5 23 Sur 46 Sur 0 1001.2 0.5 74
2019-04-24 02:00:00 15.5 18 Sudoeste 45 Sur 0 1001.6 1.6 76
2019-04-24 01:00:00 15.6 15 Sur 32 Sur 0 1001.5 2.4 80
2019-04-24 00:00:00 15.4 9 Sudoeste 23 Sur 0 1000.7 2.8 84
2019-04-23 23:00:00 16 13 Sur 28 Sur 0 1000 2.7 80
2019-04-23 22:00:00 16.2 14 Sur 31 Sur 0 999.1 2.2 79
2019-04-23 21:00:00 16.3 18 Sudoeste 37 Sudoeste 0 997.9 1.2 78
2019-04-23 20:00:00 17.2 19 Sudoeste 46 Sudoeste 0 997.3 0.6 73
2019-04-23 19:00:00 18.6 25 Sudoeste 52 Sudoeste 0 996.9 0.5 65
2019-04-23 18:00:00 19.3 21 Sudoeste 46 Sudoeste 0 996.7 0.4 62
2019-04-23 17:00:00 21.3 22 Sudoeste 40 Sudoeste 0 996.7 0.7 54
2019-04-23 16:00:00 22.3 18 Sudoeste 36 Sur 0 996.4 0.2 49
2019-04-23 15:00:00 21.7 19 Sudoeste 35 Sur 0 996.3 0.1 55
2019-04-23 14:00:00 21.3 16 Sudoeste 33 Sur 0 996 0 60
2019-04-23 13:00:00 20.9 13 Sudoeste 32 Sur 0 996.2 0.8 60
2019-04-23 12:00:00 19.5 14 Sudoeste 34 Sur 0 996.2 1.4 65
2019-04-23 11:00:00 18.2 17 Sudoeste 32 Sudoeste 0 996 1.9 75
2019-04-23 10:00:00 16.6 15 Sur 27 Sur 0 995.4 1.5 87
2019-04-23 09:00:00 14.5 5 Sur 18 Sudoeste 0 994.8 1.4 97
2019-04-23 08:00:00 13.5 5 Sudoeste 14 Sudoeste 0 994.1 1.1 98
2019-04-23 07:00:00 13.5 8 Sudoeste 15 Sudoeste 0 993.9 1.2 99
2019-04-23 06:00:00 13.7 4 Este 14 Noroeste 0 993.4 0.8 99
2019-04-23 05:00:00 13.8 5 Norte 31 Noroeste 0 993 0.5 99
2019-04-23 04:00:00 14.3 8 Noroeste 23 Noroeste 0 992.7 0.2 --
2019-04-23 03:00:00 14.7 3 Oeste 16 Noroeste 0 992.6 0.6 --
2019-04-23 02:00:00 14.7 6 Noroeste 13 Oeste 0 992.5 0.6 --
2019-04-23 01:00:00 14.9 3 Oeste 10 Noroeste 0 992.5 0.8 --
2019-04-23 00:00:00 15.1 6 Norte 14 Noroeste 0 992 1 --
2019-04-22 23:00:00 15 5 Noroeste 17 Noroeste 0 991.9 1.2 --
2019-04-22 22:00:00 14.9 8 Noroeste 23 Norte 0 991.7 1 --
2019-04-22 21:00:00 14.8 10 Norte 26 Norte 0 991 0.5 --
2019-04-22 20:00:00 14.7 15 Norte 26 Norte 0 990.7 0.2 100
2019-04-22 19:00:00 14.6 14 Norte 30 Norte 0 990.7 -0.3 100
2019-04-22 18:00:00 14.7 18 Norte 36 Norte 0 990.5 -0.8 100
2019-04-22 17:00:00 14.8 19 Norte 36 Norte 0 990.5 -1.3 100
2019-04-22 16:00:00 14.8 17 Norte 40 Norte 0 991 -1.2 100
2019-04-22 15:00:00 15 24 Norte 37 Norte 0 991.3 -1.4 100
2019-04-22 14:00:00 14.8 21 Norte 33 Norte 0 991.8 -1.4 100
2019-04-22 13:00:00 14.9 20 Norte 32 Norte 0 992.2 -0.9 100
2019-04-22 12:00:00 15.1 20 Nordeste 35 Norte 0 992.7 -0.6 99
2019-04-22 11:00:00 14.7 20 Nordeste 39 Norte 0.2 993.2 -0.4 99
2019-04-22 10:00:00 14.5 25 Nordeste 42 Nordeste 0 993.1 -0.7 98
2019-04-22 09:00:00 14.6 25 Nordeste 46 Nordeste 0 993.3 -1.2 97
2019-04-22 08:00:00 14.5 24 Nordeste 43 Nordeste 0 993.6 -1.7 96
2019-04-22 07:00:00 14.7 27 Nordeste 50 Nordeste 0 993.8 -2.1 93
2019-04-22 06:00:00 14.8 25 Nordeste 53 Nordeste 0 994.5 -2.6 91
2019-04-22 05:00:00 14.7 23 Nordeste 44 Nordeste 0 995.3 -2.4 90
2019-04-22 04:00:00 14.7 27 Nordeste 41 Nordeste 0 995.9 -4.2 90
2019-04-22 03:00:00 13.9 14 Norte 38 Norte 0.2 997.1 -3.4 94
2019-04-22 02:00:00 13.4 20 Norte 43 Norte 0.4 997.7 -3.3 96
2019-04-22 01:00:00 14.1 18 Nordeste 28 Nordeste 0.2 1000.1 -0.7 96
2019-04-22 00:00:00 14 20 Nordeste 42 Nordeste 0.8 1000.5 -0.3 95
2019-04-21 23:00:00 14.3 16 Nordeste 51 Nordeste 0.2 1001 -0.5 92
2019-04-21 22:00:00 14.2 17 Nordeste 48 Nordeste 0 1000.8 -0.6 92
2019-04-21 21:00:00 14.2 25 Nordeste 51 Nordeste 0.2 1000.8 -0.7 92
2019-04-21 20:00:00 14 17 Nordeste 41 Nordeste 0.2 1001.5 -0.4 97
2019-04-21 19:00:00 14.2 22 Nordeste 41 Nordeste 0.2 1001.4 -0.9 97
2019-04-21 18:00:00 14.6 26 Nordeste 42 Nordeste 0.2 1001.5 -1.4 97
2019-04-21 17:00:00 15.3 21 Nordeste 44 Nordeste 0 1001.9 -1.6 92
2019-04-21 16:00:00 16.1 22 Nordeste 46 Nordeste 0 1002.3 -1.9 88
2019-04-21 15:00:00 15.9 24 Nordeste 39 Nordeste 0 1002.9 -1.8 92
2019-04-21 14:00:00 15 23 Nordeste 39 Nordeste 0 1003.5 -1.5 95
2019-04-21 13:00:00 15.1 23 Nordeste 36 Nordeste 0 1004.2 -1.1 96
2019-04-21 12:00:00 14.8 21 Nordeste 39 Nordeste 0 1004.7 -0.8 97
2019-04-21 11:00:00 14.3 20 Nordeste 36 Nordeste 0.4 1005 -1.1 97
2019-04-21 10:00:00 14.1 18 Nordeste 37 Nordeste 0 1005.3 -0.5 93
2019-04-21 09:00:00 15.1 23 Nordeste 38 Nordeste 0 1005.5 -0.6 77
2019-04-21 08:00:00 15.1 18 Nordeste 36 Nordeste 0 1006.1 -0.4 77
2019-04-21 07:00:00 15.2 18 Nordeste 43 Nordeste 0 1005.8 -1.5 76
2019-04-21 06:00:00 14.6 19 Nordeste 43 Nordeste 0 1006.1 -1.9 79
2019-04-21 05:00:00 14.9 19 Nordeste 37 Nordeste 0 1006.5 -2.5 77
2019-04-21 04:00:00 14.7 18 Nordeste 44 Nordeste 0 1007.3 -2.4 79
2019-04-21 03:00:00 15.2 21 Nordeste 44 Nordeste 0 1008 -2.2 76
2019-04-21 02:00:00 15.4 19 Nordeste 35 Nordeste 0 1009 -1.2 74
2019-04-21 01:00:00 15.6 18 Nordeste 38 Nordeste 0 1009.7 -0.7 70
2019-04-21 00:00:00 15.7 16 Nordeste 37 Nordeste 0 1010.2 -0.1 71
2019-04-20 23:00:00 15.7 23 Nordeste 41 Nordeste 0 1010.2 -0.1 77
2019-04-20 22:00:00 15.2 21 Nordeste 37 Norte 0 1010.4 -0.2 80
2019-04-20 21:00:00 15.6 26 Nordeste 42 Nordeste 0 1010.3 -0.2 77
2019-04-20 20:00:00 16.2 26 Nordeste 42 Nordeste 0 1010.3 -0.4 70
2019-04-20 19:00:00 17.2 25 Nordeste 49 Nordeste 0 1010.6 -0.5 65
2019-04-20 18:00:00 18.4 28 Nordeste 48 Nordeste 0 1010.5 -0.9 58
2019-04-20 17:00:00 18.5 28 Nordeste 58 Nordeste 0 1010.7 -1 57
2019-04-20 16:00:00 19.2 31 Nordeste 59 Nordeste 0 1011.1 -1 55
2019-04-20 15:00:00 19.1 27 Nordeste 51 Nordeste 0 1011.4 -1.5 59
2019-04-20 14:00:00 18.6 28 Nordeste 51 Nordeste 0 1011.7 -1.9 60
2019-04-20 13:00:00 18.8 28 Nordeste 45 Nordeste 0 1012.1 -1.4 60
2019-04-20 12:00:00 17.8 22 Nordeste 44 Nordeste 0 1012.9 -0.2 61
2019-04-20 11:00:00 17 18 Nordeste 39 Nordeste 0 1013.6 -0.3 60
2019-04-20 10:00:00 16.9 21 Nordeste 50 Nordeste 0 1013.5 0.8 59
2019-04-20 09:00:00 16.3 22 Nordeste 44 Nordeste 0 1013.1 0.3 59
2019-04-20 08:00:00 16.2 15 Nordeste 39 Nordeste 0 1013.9 1.4 58
2019-04-20 07:00:00 15.7 18 Nordeste 36 Nordeste 0 1012.7 -0.4 62
2019-04-20 06:00:00 15.4 23 Nordeste 43 Nordeste 0 1012.8 -0.9 69
2019-04-20 05:00:00 15.6 28 Nordeste 42 Nordeste 0 1012.5 -1.7 68
2019-04-20 04:00:00 15.2 22 Nordeste 35 Nordeste 0 1013.1 -1.8 74
2019-04-20 03:00:00 15 20 Nordeste 35 Nordeste 0 1013.7 -1.8 75
2019-04-20 02:00:00 15.4 25 Nordeste 37 Nordeste 0 1014.2 -1.3 76
2019-04-20 01:00:00 15.1 20 Nordeste 37 Nordeste 0 1014.9 -0.7 78
2019-04-20 00:00:00 15.6 17 Nordeste 35 Norte 0 1015.5 0 76
2019-04-19 23:00:00 16.2 19 Norte 31 Norte 0 1015.5 0 71
2019-04-19 22:00:00 16 17 Norte 32 Nordeste 0 1015.6 0.4 76
2019-04-19 21:00:00 16 14 Norte 31 Nordeste 0 1015.5 0.5 77
2019-04-19 20:00:00 16.7 18 Norte 38 Nordeste 0 1015.5 0.7 73
2019-04-19 19:00:00 16.7 19 Nordeste 42 Nordeste 0 1015.2 1.1 74
2019-04-19 18:00:00 16.6 22 Nordeste 38 Nordeste 0 1015 0.6 75
2019-04-19 17:00:00 16.6 22 Nordeste 43 Nordeste 0 1014.8 0.2 77
2019-04-19 16:00:00 16.7 28 Nordeste 42 Nordeste 0 1014.1 -0.3 76
2019-04-19 15:00:00 17.1 23 Nordeste 44 Nordeste 0 1014.4 -0.1 73
2019-04-19 14:00:00 16.8 19 Nordeste 37 Nordeste 0 1014.6 0.5 74
2019-04-19 13:00:00 16.7 19 Nordeste 36 Este 0 1014.4 0.6 73
2019-04-19 12:00:00 16.4 19 Nordeste 41 Este 0 1014.5 1.1 74
2019-04-19 11:00:00 16.2 17 Nordeste 35 Este 0 1014.1 1 78
2019-04-19 10:00:00 15.5 17 Nordeste 34 Nordeste 0 1013.8 0.9 88
2019-04-19 09:00:00 15.1 14 Nordeste 24 Nordeste 0.2 1013.4 0.6 93
2019-04-19 08:00:00 14.8 10 Nordeste 19 Nordeste 0 1013.1 0.4 95
2019-04-19 07:00:00 14.7 10 Nordeste 15 Nordeste 0 1012.9 0.3 95
2019-04-19 06:00:00 14.9 7 Nordeste 17 Este 0 1012.8 0.1 93
2019-04-19 05:00:00 15.2 9 Nordeste 19 Nordeste 0 1012.7 -0.3 87
2019-04-19 04:00:00 15.7 12 Este 23 Este 0 1012.6 -0.2 79
2019-04-19 03:00:00 16.1 10 Este 19 Este 0 1012.7 -0.6 75
2019-04-19 02:00:00 16.2 10 Este 26 Nordeste 0 1013 0 72
2019-04-19 01:00:00 16.2 9 Nordeste 23 Este 0 1012.8 0.1 70
2019-04-19 00:00:00 16.3 12 Este 25 Este 0 1013.3 2 69
2019-04-18 23:00:00 16.2 10 Este 22 Este 0 1013 1.4 70
2019-04-18 22:00:00 15.9 4 Nordeste 17 Norte 0 1012.7 1.9 71
2019-04-18 21:00:00 16.3 11 Nordeste 25 Este 0 1011.3 1.2 69
2019-04-18 20:00:00 17.2 10 Este 36 Este 0 1011.6 1.3 65
2019-04-18 19:00:00 18.2 18 Este 31 Nordeste 0 1010.8 0.2 62
2019-04-18 18:00:00 19.4 17 Nordeste 30 Nordeste 0 1010.1 -0.7 60
2019-04-18 17:00:00 19.7 14 Este 29 Este 0 1010.3 -0.6 60
2019-04-18 16:00:00 20.3 16 Nordeste 32 Este 0 1010.6 -0.7 59
2019-04-18 15:00:00 20.7 19 Nordeste 36 Nordeste 0 1010.8 -1.9 57
2019-04-18 14:00:00 20.3 17 Nordeste 34 Nordeste 0 1010.9 -1.2 59
2019-04-18 13:00:00 20.4 18 Nordeste 37 Nordeste 0 1011.3 -0.5 59
2019-04-18 12:00:00 19.2 15 Nordeste 30 Nordeste 0 1012.7 0.8 66
2019-04-18 11:00:00 18.8 18 Nordeste 29 Nordeste 0 1012.1 0.3 69
2019-04-18 10:00:00 16.2 12 Nordeste 30 Nordeste 0 1011.8 1.5 81
2019-04-18 09:00:00 15.3 13 Nordeste 21 Norte 0 1011.9 0.7 86
2019-04-18 08:00:00 14.3 9 Norte 29 Nordeste 0 1011.8 0.6 90
2019-04-18 07:00:00 13.8 17 Nordeste 24 Nordeste 0 1010.3 -1.7 92
2019-04-18 06:00:00 13.6 11 Norte 22 Nordeste 0 1011.2 -1.9 93
2019-04-18 05:00:00 11.9 8 Noroeste 14 Noroeste 0 1011.2 -1.8 94
2019-04-18 04:00:00 12.5 4 Norte 11 Noroeste 0 1012 -1.4 93
2019-04-18 03:00:00 12.7 6 Oeste 14 Nordeste 0 1013.1 -0.6 92
2019-04-18 02:00:00 13 6 Norte 15 Noroeste 0 1013 -1 91
2019-04-18 01:00:00 11.9 6 Norte 11 Norte 0 1013.4 -0.8 88
2019-04-18 00:00:00 12.3 5 Noroeste 8 Noroeste 0 1013.7 0.1 85
2019-04-17 23:00:00 13.1 5 Noroeste 7 Noroeste 0 1014 1 81
2019-04-17 22:00:00 13.7 2 Oeste 7 Sudeste 0 1014.2 1.4 78
2019-04-17 21:00:00 14.8 5 Sudeste 13 Sur 0 1013.6 0.9 72
2019-04-17 20:00:00 16.5 8 Sudeste 22 Sudeste 0 1013 0.3 66
2019-04-17 19:00:00 18.3 14 Sudeste 27 Este 0 1012.8 -0.7 61
2019-04-17 18:00:00 20 16 Sudeste 27 Sudeste 0 1012.7 -1.5 54
2019-04-17 17:00:00 21.5 16 Sudeste 31 Sudeste 0 1012.7 -2.1 49
2019-04-17 16:00:00 21.3 19 Nordeste 30 Nordeste 0 1013.5 -1.8 51
2019-04-17 15:00:00 20.8 21 Nordeste 30 Nordeste 0 1014.2 -1.4 55
2019-04-17 14:00:00 21.1 12 Nordeste 25 Nordeste 0 1014.8 -1.1 51
2019-04-17 13:00:00 20.6 8 Norte 23 Nordeste 0 1015.3 -0.4 53
2019-04-17 12:00:00 20.2 7 Este 18 Sudeste 0 1015.6 -0.1 54
2019-04-17 11:00:00 18.8 4 Este 12 Norte 0 1015.9 0.6 62
2019-04-17 10:00:00 16.6 4 Nordeste 8 Nordeste 0 1015.7 0.5 77
2019-04-17 09:00:00 12 3 Sur 7 Sur 0 1015.7 0.4 93
2019-04-17 08:00:00 8.4 3 Sudoeste 8 Sudoeste 0 1015.3 -0.2 95
2019-04-17 07:00:00 7.5 5 Sur 10 Sur 0 1015.2 -0.7 95
2019-04-17 06:00:00 7.9 6 Sudoeste 9 Sudoeste 0 1015.3 -1 94
2019-04-17 05:00:00 7.7 4 Sur 8 Oeste 0 1015.5 -1.2 93
2019-04-17 04:00:00 9.2 3 Sudoeste 8 Sudoeste 0 1015.9 -0.7 92
2019-04-17 03:00:00 9.7 6 Sudoeste 8 Sudoeste 0 1016.3 -0.2 91
2019-04-17 02:00:00 10.3 5 Sudoeste 8 Sur 0 1016.7 0 89
2019-04-17 01:00:00 11.1 3 Sudoeste 8 Sudoeste 0 1016.6 -0.1 86
2019-04-17 00:00:00 12.2 0 Calma 9 Noroeste 0 1016.5 0 84
2019-04-16 23:00:00 13.1 6 Noroeste 10 Noroeste 0 1016.7 0.8 83
2019-04-16 22:00:00 14.2 5 Norte 12 Norte 0 1016.7 0.9 78
2019-04-16 21:00:00 15.2 7 Nordeste 18 Nordeste 0 1016.5 0.9 73
2019-04-16 20:00:00 16.2 10 Nordeste 23 Nordeste 0 1015.9 0.6 68
2019-04-16 19:00:00 16.7 15 Nordeste 25 Nordeste 0 1015.8 0.8 66
2019-04-16 18:00:00 17.7 17 Nordeste 31 Nordeste 0 1015.6 0.5 60
2019-04-16 17:00:00 19.6 17 Nordeste 32 Nordeste 0 1015.3 0.5 48
2019-04-16 16:00:00 20.2 18 Nordeste 32 Nordeste 0 1015 0 55
2019-04-16 15:00:00 21.6 18 Nordeste 31 Nordeste 0 1015.1 -0.5 43
2019-04-16 14:00:00 22.7 11 Nordeste 25 Nordeste 0 1014.8 -0.2 44
2019-04-16 13:00:00 21.5 6 Este 15 Nordeste 0 1015 0.7 44
2019-04-16 12:00:00 19.9 4 Norte 12 Nordeste 0 1015.6 1.7 45
2019-04-16 11:00:00 18.4 4 Norte 9 Nordeste 0 1015 1.8 56
2019-04-16 10:00:00 16 3 Este 12 Sur 0 1014.3 1.5 82
2019-04-16 09:00:00 11.9 7 Sur 14 Sudeste 0 1013.9 1.5 95
2019-04-16 08:00:00 10.6 5 Oeste 11 Oeste 0.4 1013.2 0.5 93
2019-04-16 07:00:00 10.2 4 Sudeste 14 Sur 0 1012.8 0.1 90
2019-04-16 06:00:00 9.9 4 Sudoeste 12 Sudoeste 0 1012.4 -0.4 87
2019-04-16 05:00:00 9.4 5 Sur 10 Sudoeste 0 1012.7 0 83
2019-04-16 04:00:00 9.1 2 Sudoeste 6 Sur 0 1012.7 -0.2 83
2019-04-16 03:00:00 9.5 3 Oeste 13 Oeste 0 1012.8 -0.2 79
2019-04-16 02:00:00 9.7 6 Oeste 10 Oeste 0 1012.7 -0.3 81
2019-04-16 01:00:00 11.2 3 Sur 10 Oeste 0 1012.9 0.1 74
2019-04-16 00:00:00 12.7 6 Sudoeste 12 Sudoeste 0 1013 0.2 71
2019-04-15 23:00:00 13.5 6 Sudoeste 12 Sudoeste 0 1013 1 66
2019-04-15 22:00:00 14.2 3 Sudoeste 12 Sur 0 1012.8 0.3 60
2019-04-15 21:00:00 15.1 9 Sur 15 Sur 0 1012.8 0.4 48
2019-04-15 20:00:00 16.4 12 Sudeste 21 Sudeste 0 1012 -0.1 34
2019-04-15 19:00:00 17.7 10 Sudeste 23 Sur 0 1012.5 0.1 31
2019-04-15 18:00:00 19.4 12 Sudeste 27 Sudeste 0 1012.4 -0.4 28
2019-04-15 17:00:00 19.9 14 Sudeste 31 Sudeste 0 1012.1 -1.3 29
2019-04-15 16:00:00 19.9 18 Sudeste 27 Sudeste 0 1012.4 -1.6 29
2019-04-15 15:00:00 20.8 14 Sudeste 24 Sudeste 0 1012.8 -1.3 31
2019-04-15 14:00:00 21.8 10 Sudeste 31 Este 0 1013.4 -0.7 30
2019-04-15 13:00:00 20.6 12 Nordeste 25 Nordeste 0 1014 -0.2 43
2019-04-15 12:00:00 19.7 10 Norte 23 Nordeste 0 1014.1 0 46
2019-04-15 11:00:00 19.1 4 Nordeste 12 Nordeste 0 1014.1 0.7 42
2019-04-15 10:00:00 17.4 5 Sudeste 8 Este 0 1014.2 0.9 51
2019-04-15 09:00:00 12.6 4 Sur 9 Sudoeste 0 1014.1 0.9 76
2019-04-15 08:00:00 9 6 Sudoeste 10 Sudoeste 0 1013.4 -0.1 80
2019-04-15 07:00:00 8.2 7 Sur 10 Sudoeste 0 1013.3 -0.2 84
2019-04-15 06:00:00 8.3 5 Sur 8 Sudoeste 0 1013.2 -0.5 83
2019-04-15 05:00:00 8.9 4 Sudoeste 7 Sudoeste 0 1013.5 -0.2 85
2019-04-15 04:00:00 9.7 3 Sudoeste 8 Sudoeste 0 1013.5 -0.3 86
2019-04-15 03:00:00 10.4 3 Sudoeste 8 Oeste 0 1013.7 0.3 87
2019-04-15 02:00:00 11.1 4 Oeste 6 Oeste 0 1013.7 0.9 89
2019-04-15 01:00:00 11.8 5 Noroeste 8 Noroeste 0 1013.8 1.3 90
2019-04-15 00:00:00 12.7 4 Oeste 10 Oeste 0 1013.4 1.7 87
2019-04-14 23:00:00 13.3 5 Sudoeste 8 Sudoeste 0 1012.8 1.9 84
2019-04-14 22:00:00 14 4 Sur 6 Sur 0 1012.5 1.8 80
2019-04-14 21:00:00 15.2 3 Nordeste 12 Nordeste 0 1011.7 1.7 76
2019-04-14 20:00:00 16.6 8 Nordeste 19 Nordeste 0 1010.9 1.3 71
2019-04-14 19:00:00 18 13 Este 28 Este 0 1010.7 0.7 69
2019-04-14 18:00:00 19.6 17 Este 32 Nordeste 0 1010 0 59
2019-04-14 17:00:00 22.8 15 Este 22 Este 0 1009.6 -0.3 39
2019-04-14 16:00:00 23.2 8 Nordeste 18 Este 0 1010 0.1 30
2019-04-14 15:00:00 23.8 7 Noroeste 30 Noroeste 0 1010 -0.4 19
2019-04-14 14:00:00 25.4 19 Noroeste 34 Noroeste 0 1009.9 -0.8 17
2019-04-14 13:00:00 24.1 6 Norte 16 Sudoeste 0 1009.9 -0.3 32
2019-04-14 12:00:00 21.7 9 Sudoeste 21 Sur 0 1010.4 -0.1 52
2019-04-14 11:00:00 18.7 10 Sudoeste 30 Sudoeste 0 1010.7 -0.1 73
2019-04-14 10:00:00 14.9 16 Sudoeste 32 Sudoeste 0 1010.2 -0.7 96
2019-04-14 09:00:00 12.6 10 Sudoeste 31 Sudoeste 0 1010.5 -0.7 98
2019-04-14 08:00:00 11.3 9 Sur 19 Sur 0 1010.8 -0.7 98
2019-04-14 07:00:00 11.2 5 Sudoeste 14 Sudoeste 0 1010.9 -1 97
2019-04-14 06:00:00 8.8 4 Noroeste 18 Sur 0 1011.2 -1.3 94
2019-04-14 05:00:00 11.4 10 Sudoeste 20 Sudoeste 0 1011.5 -1.6 96
2019-04-14 04:00:00 11.9 10 Sur 27 Sudoeste 0 1011.9 -1.5 94
2019-04-14 03:00:00 12.2 13 Sudoeste 26 Sudoeste 0 1012.5 -1 93
2019-04-14 02:00:00 11.9 10 Sudoeste 21 Sudoeste 0 1013.1 -0.4 93
2019-04-14 01:00:00 12.1 9 Sudoeste 20 Sudoeste 0 1013.4 -0.2 93
2019-04-14 00:00:00 12.1 2 Sudoeste 17 Sudoeste 0 1013.5 0.5 90
2019-04-13 23:00:00 13.1 9 Sudoeste 18 Sudoeste 0 1013.5 0.8 84
2019-04-13 22:00:00 13.1 6 Sur 10 Sur 0 1013.6 1.3 78
2019-04-13 21:00:00 15.7 5 Sudoeste 23 Sur 0 1013 0.8 67
2019-04-13 20:00:00 17.8 9 Sur 20 Sur 0 1012.7 0.4 54
2019-04-13 19:00:00 19.9 10 Sudeste 17 Sur 0 1012.3 -0.4 43
2019-04-13 18:00:00 20.3 13 Nordeste 22 Nordeste 0 1012.2 -0.9 49
2019-04-13 17:00:00 21.1 11 Este 21 Nordeste 0 1012.3 -1 48
2019-04-13 16:00:00 19.5 10 Este 22 Este 0 1012.7 -0.8 52
2019-04-13 15:00:00 19.6 14 Nordeste 30 Este 0 1013.1 -0.8 49
2019-04-13 14:00:00 21 9 Sur 25 Sudoeste 0 1013.3 -0.9 37
2019-04-13 13:00:00 21.2 12 Sudoeste 25 Sur 0 1013.5 -0.6 32
2019-04-13 12:00:00 20.5 12 Sur 26 Sur 0 1013.9 0.1 31
2019-04-13 11:00:00 18.5 11 Sudoeste 19 Sudoeste 0 1014.2 0.9 47
2019-04-13 10:00:00 15.1 8 Sur 17 Sudoeste 0 1014.1 1.1 78
2019-04-13 09:00:00 10.3 8 Sur 14 Sur 0 1013.8 1 92
2019-04-13 08:00:00 6.4 5 Sur 8 Sur 0 1013.3 0.2 95
2019-04-13 07:00:00 6.5 5 Sur 10 Sur 0 1013 -0.4 95
2019-04-13 06:00:00 6.4 4 Sudoeste 8 Sudoeste 0 1012.8 -0.8 95
2019-04-13 05:00:00 6.8 2 Sudoeste 8 Sur 0 1013.1 -1 94
2019-04-13 04:00:00 7.2 5 Sur 13 Sudoeste 0 1013.4 -0.6 94
2019-04-13 03:00:00 7.8 9 Sudoeste 13 Sudoeste 0 1013.6 -0.2 93
2019-04-13 02:00:00 7.8 5 Sur 7 Sur 0 1014.1 0.5 91
2019-04-13 01:00:00 8.8 3 Sur 12 Oeste 0 1014 0.9 89
2019-04-13 00:00:00 9.5 4 Oeste 6 Noroeste 0 1013.8 1.4 85
2019-04-12 23:00:00 10.4 5 Sudeste 8 Sudeste 0 1013.6 1.6 80
2019-04-12 22:00:00 12.2 4 Sur 15 Sudeste 0 1013.1 1.3 75
2019-04-12 21:00:00 13.7 5 Sur 17 Sur 0 1012.4 0.7 66
2019-04-12 20:00:00 15.3 7 Sur 27 Sudeste 0 1012 0.4 61
2019-04-12 19:00:00 16 13 Sudeste 23 Sudeste 0 1011.8 -0.1 65
2019-04-12 18:00:00 17.2 14 Sudeste 23 Sudeste 0 1011.7 -0.2 62
2019-04-12 17:00:00 17.1 16 Sudeste 25 Sudeste 0 1011.6 -0.2 63
2019-04-12 16:00:00 16.6 12 Sudeste 25 Nordeste 0 1011.9 0.1 54
2019-04-12 15:00:00 18.3 8 Nordeste 18 Este 0 1011.9 0 55
2019-04-12 14:00:00 18.2 8 Nordeste 21 Nordeste 0 1011.8 -0.1 53
2019-04-12 13:00:00 18.3 9 Nordeste 19 Este 0 1011.8 0.4 52
2019-04-12 12:00:00 18.3 10 Nordeste 25 Este 0 1011.9 0.5 51
2019-04-12 11:00:00 16.6 11 Nordeste 25 Nordeste 0 1011.9 0.8 54
2019-04-12 10:00:00 16.7 17 Nordeste 37 Nordeste 0.2 1011.4 0.9 53
2019-04-12 09:00:00 14.5 15 Nordeste 26 Nordeste 0 1011.4 1.1 60
2019-04-12 08:00:00 11.3 2 Oeste 7 Oeste 0 1011.1 0.9 84
2019-04-12 07:00:00 11.3 4 Sudeste 9 Sudoeste 0 1010.5 0.2 82
2019-04-12 06:00:00 11.1 3 Oeste 8 Sudoeste 0 1010.3 -0.3 81
2019-04-12 05:00:00 11 3 Sudoeste 9 Sudoeste 0 1010.2 -0.6 80
2019-04-12 04:00:00 10.9 6 Sur 9 Sur 0 1010.3 -0.5 80
2019-04-12 03:00:00 10.9 2 Este 8 Noroeste 0 1010.6 -0.4 83
2019-04-12 02:00:00 11.4 4 Noroeste 9 Sur 0 1010.8 0.1 78
2019-04-12 01:00:00 12.2 7 Sudeste 11 Sudoeste 0 1010.8 0.1 76
2019-04-12 00:00:00 12.8 6 Sudoeste 15 Sudoeste 0.2 1011 1.2 69
2019-04-11 23:00:00 13.7 7 Sur 12 Sur 0 1010.7 1.6 65
2019-04-11 22:00:00 14.3 6 Sudeste 9 Sudeste 0 1010.7 1.8 59
2019-04-11 21:00:00 15.7 4 Sur 12 Sudeste 0 1009.8 1.2 49
2019-04-11 20:00:00 17.9 0 Calma 19 Noroeste 0 1009.1 0.7 39
2019-04-11 19:00:00 18 13 Noroeste 25 Noroeste 0 1008.9 0.3 28
2019-04-11 18:00:00 19.8 10 Sudeste 35 Este 0 1008.6 -0.1 34
2019-04-11 17:00:00 21 11 Nordeste 31 Este 0 1008.4 -0.5 27
2019-04-11 16:00:00 21.4 9 Nordeste 24 Norte 0 1008.6 -0.5 35
2019-04-11 15:00:00 21.1 9 Noroeste 25 Nordeste 0 1008.7 -0.7 28
2019-04-11 14:00:00 21.2 8 Noroeste 30 Sur 0 1008.9 -0.5 38
2019-04-11 13:00:00 20.5 5 Sudoeste 17 Este 0 1009.1 -0.2 40
2019-04-11 12:00:00 19.6 6 Nordeste 15 Sudeste 0 1009.4 0.4 42
2019-04-11 11:00:00 16.4 6 Sudeste 14 Sudeste 0 1009.4 0.6 58
2019-04-11 10:00:00 15.9 7 Sur 14 Sur 0 1009.3 1.1 64
2019-04-11 09:00:00 11.9 6 Sudoeste 11 Sur 0 1009 1 82
2019-04-11 08:00:00 10 4 Sudeste 8 Sur 0 1008.8 0.8 87
2019-04-11 07:00:00 9.9 3 Sur 9 Sur 0 1008.2 0.3 87
2019-04-11 06:00:00 9.9 6 Sur 13 Sur 0 1008 -0.4 90
2019-04-11 05:00:00 9.8 7 Sur 12 Sur 0 1008 -0.8 91
2019-04-11 04:00:00 9.7 5 Sudoeste 10 Sudoeste 0 1007.9 -0.9 92
2019-04-11 03:00:00 9.4 4 Sur 9 Sur 0 1008.4 -0.3 90
2019-04-11 02:00:00 10.6 3 Oeste 9 Sudoeste 0 1008.8 0 87
2019-04-11 01:00:00 11 6 Sudoeste 9 Sudoeste 0 1008.8 0.4 87
2019-04-11 00:00:00 11 4 Sur 6 Oeste 0 1008.7 1 84
2019-04-10 23:00:00 11.3 4 Sudoeste 8 Oeste 0 1008.8 1.7 82
2019-04-10 22:00:00 11.7 0 Calma 5 Sudoeste 0 1008.4 1.7 81
2019-04-10 21:00:00 13.3 0 Calma 6 Noroeste 0 1007.7 1.8 74
2019-04-10 20:00:00 15.1 4 Sur 15 Sudeste 0 1007.1 1.3 61
2019-04-10 19:00:00 16.8 13 Sudeste 30 Sudeste 0 1006.7 0.9 53
2019-04-10 18:00:00 18.2 11 Este 18 Este 0 1005.9 -0.2 46
2019-04-10 17:00:00 18.5 11 Nordeste 21 Norte 0 1005.8 -0.4 42
2019-04-10 16:00:00 19.5 10 Sudoeste 20 Sudoeste 0 1005.8 -0.4 42
2019-04-10 15:00:00 16.7 7 Oeste 20 Sudoeste 0 1006.1 -0.4 51
2019-04-10 14:00:00 16.8 8 Oeste 26 Noroeste 0 1006.2 -0.3 56
2019-04-10 13:00:00 18 6 Norte 13 Noroeste 0 1006.2 -0.2 53
2019-04-10 12:00:00 16.2 5 Oeste 18 Oeste 0 1006.5 0.2 62
2019-04-10 11:00:00 13.8 4 Sudeste 8 Oeste 0 1006.5 0.7 87
2019-04-10 10:00:00 11.1 4 Sudoeste 15 Sudoeste 0 1006.4 1.8 91
2019-04-10 09:00:00 9.4 8 Sudoeste 21 Sudoeste 3.4 1006.3 2.3 91
2019-04-10 08:00:00 9.1 10 Oeste 29 Sudoeste 7 1005.8 2 85
2019-04-10 07:00:00 11.5 11 Oeste 24 Oeste 0.4 1004.6 0.8 78
2019-04-10 06:00:00 11 4 Sudoeste 9 Este 0 1004 -0.5 80
2019-04-10 05:00:00 10.8 0 Calma 12 Sur 0 1003.8 -1.1 75
2019-04-10 04:00:00 12.4 7 Sur 19 Sudoeste 0 1003.8 -1.3 72
2019-04-10 03:00:00 12.2 8 Sur 18 Sudoeste 0 1004.5 -1.2 70
2019-04-10 02:00:00 13.3 10 Sudoeste 30 Sur 0 1004.9 -1.3 65
2019-04-10 01:00:00 13.5 15 Sudoeste 28 Sudoeste 0 1005.1 -1.4 67
2019-04-10 00:00:00 13.1 8 Sudoeste 24 Sudoeste 0 1005.7 -0.4 73
2019-04-09 23:00:00 12.9 8 Sudoeste 20 Sudoeste 0 1006.2 0.5 71
2019-04-09 22:00:00 13.3 8 Sudoeste 20 Sudoeste 0 1006.5 1 63
2019-04-09 21:00:00 15 10 Sudoeste 23 Sudoeste 0 1006.1 0.6 44
2019-04-09 20:00:00 17 11 Sudoeste 27 Sudoeste 0 1005.7 0 42
2019-04-09 19:00:00 19.4 10 Sudoeste 24 Oeste 0 1005.5 -0.4 34
2019-04-09 18:00:00 19.8 12 Oeste 28 Sudoeste 0 1005.5 -0.7 36
2019-04-09 17:00:00 19.9 16 Sudoeste 31 Sudoeste 0 1005.7 -0.6 37
2019-04-09 16:00:00 19.8 15 Oeste 33 Oeste 0 1005.9 -0.2 40
2019-04-09 15:00:00 18.6 17 Noroeste 34 Noroeste 0 1006.2 0.3 49
2019-04-09 14:00:00 17.2 17 Noroeste 33 Noroeste 0 1006.3 0.9 58
2019-04-09 13:00:00 18.7 15 Norte 35 Noroeste 0 1006.1 0.5 57
2019-04-09 12:00:00 18.5 22 Noroeste 39 Noroeste 0 1005.9 1 55
2019-04-09 11:00:00 17.5 7 Sudoeste 18 Noroeste 0 1005.4 0.8 61
2019-04-09 10:00:00 14.4 11 Oeste 34 Sudoeste 1.6 1005.6 0.6 80
2019-04-09 09:00:00 14.2 14 Sudoeste 28 Sudoeste 0 1004.9 -0.1 95
2019-04-09 08:00:00 13.2 9 Sur 18 Sudoeste 0 1004.6 -0.9 98
2019-04-09 07:00:00 12.5 6 Sur 13 Sudoeste 0 1005 -1.5 98
2019-04-09 06:00:00 12.1 5 Sudoeste 19 Sur 0 1005 -2 97
2019-04-09 05:00:00 12.3 10 Sur 18 Sur 0 1005.5 -2 96
2019-04-09 04:00:00 12.3 6 Sur 13 Sudoeste 0 1006.5 -1.4 94
2019-04-09 03:00:00 11.8 6 Sur 10 Sur 0 1007 -0.9 92
2019-04-09 02:00:00 12.6 3 Sudoeste 15 Sudoeste 0 1007.5 -0.6 91
2019-04-09 01:00:00 12.8 4 Sur 13 Sur 0 1007.9 -0.4 85
2019-04-09 00:00:00 13.1 2 Norte 12 Sur 0 1007.9 0.2 81
2019-04-08 23:00:00 13.6 6 Sudeste 20 Sudoeste 0 1008.1 1 78
2019-04-08 22:00:00 15 10 Sudoeste 23 Sudoeste 0 1008.3 1.4 70
2019-04-08 21:00:00 16.2 9 Sudoeste 23 Sudoeste 0 1007.7 1 65
2019-04-08 20:00:00 18.1 10 Sudoeste 22 Sudoeste 0 1007.1 0.1 54
2019-04-08 19:00:00 20.3 6 Oeste 27 Sudoeste 0 1006.9 -0.5 39
2019-04-08 18:00:00 21.4 15 Sur 26 Sur 0 1006.7 -1 44
2019-04-08 17:00:00 21.7 12 Sudoeste 33 Sur 0 1007 -0.9 45
2019-04-08 16:00:00 20.9 16 Sur 33 Sudoeste 0 1007.4 -0.9 45
2019-04-08 15:00:00 21.2 18 Sudoeste 39 Sudoeste 0 1007.7 -0.8 43
2019-04-08 14:00:00 20.5 19 Sudoeste 32 Sur 0 1007.9 -1.1 44
2019-04-08 13:00:00 18.4 15 Sudoeste 28 Sudoeste 0 1008.3 -0.8 52
2019-04-08 12:00:00 18.3 16 Sudoeste 30 Sudoeste 0 1008.5 -1.2 50
2019-04-08 11:00:00 16.3 12 Sudoeste 26 Sur 0 1009 -0.2 70
2019-04-08 10:00:00 14.6 12 Sur 24 Sur 0 1009.1 -0.1 77
2019-04-08 09:00:00 8.7 6 Sur 13 Sur 0 1009.7 0.2 80
2019-04-08 08:00:00 5.4 4 Sur 9 Sur 0 1009.2 -0.7 87
2019-04-08 07:00:00 4.9 6 Sudoeste 10 Sudoeste 0 1009.2 -0.9 87
2019-04-08 06:00:00 5.3 4 Sur 10 Sur 0 1009.5 -0.9 84
2019-04-08 05:00:00 5.7 6 Sur 10 Sur 0 1009.9 -0.8 88
2019-04-08 04:00:00 6 5 Sudoeste 8 Sur 0 1010.1 -0.8 88
2019-04-08 03:00:00 6.1 4 Sudoeste 11 Sur 0 1010.4 -0.4 86
2019-04-08 02:00:00 6.4 4 Sudoeste 8 Sudoeste 0 1010.7 0.1 87
2019-04-08 01:00:00 6.9 4 Oeste 8 Oeste 0 1010.9 0.8 85
2019-04-08 00:00:00 7.9 3 Oeste 7 Sudoeste 0 1010.8 1.8 80
2019-04-07 23:00:00 8.3 4 Nordeste 9 Sur 0 1010.6 2 76
2019-04-07 22:00:00 10 3 Sur 8 Oeste 0 1010.1 2.3 70
2019-04-07 21:00:00 11.5 4 Sudoeste 10 Noroeste 0 1009 2.4 65
2019-04-07 20:00:00 13.4 6 Noroeste 20 Noroeste 0 1008.6 3 57
2019-04-07 19:00:00 15 9 Noroeste 26 Noroeste 0 1007.8 3 50
2019-04-07 18:00:00 15.9 14 Noroeste 33 Noroeste 0 1006.6 2.2 47
2019-04-07 17:00:00 16.4 18 Noroeste 36 Noroeste 0 1005.6 1.5 45
2019-04-07 16:00:00 16.2 14 Noroeste 41 Noroeste 0 1004.8 1.3 46
2019-04-07 15:00:00 16.5 18 Noroeste 39 Noroeste 0 1004.4 1.7 44
2019-04-07 14:00:00 15.7 17 Noroeste 36 Noroeste 0 1004.1 1.6 48
2019-04-07 13:00:00 16.6 13 Oeste 40 Noroeste 0 1003.5 1.9 42
2019-04-07 12:00:00 16.7 17 Noroeste 36 Noroeste 0 1002.7 1.5 42
2019-04-07 11:00:00 14.6 14 Noroeste 32 Noroeste 0 1002.5 2.1 52
2019-04-07 10:00:00 12.5 6 Oeste 18 Sudoeste 0 1001.6 1.9 81
2019-04-07 09:00:00 9.3 4 Sudoeste 13 Sur 0.2 1001.2 2.3 94
2019-04-07 08:00:00 8.1 8 Sudoeste 15 Sur 0.2 1000.4 1.3 94
2019-04-07 07:00:00 6.3 5 Nordeste 12 Norte 0 999.7 0.3 92
2019-04-07 06:00:00 6.7 6 Sur 9 Sur 0 998.9 -1 92
2019-04-07 05:00:00 6.8 4 Sudeste 10 Noroeste 0 999.1 -1.7 91
2019-04-07 04:00:00 6.7 0 Calma 9 Noroeste 0 999.4 -1.9 89
2019-04-07 03:00:00 7.6 6 Sur 17 Sur 0 999.9 -1.7 88
2019-04-07 02:00:00 7.6 7 Sur 12 Sudoeste 0 1000.8 -0.9 86
2019-04-07 01:00:00 7.8 4 Oeste 8 Oeste 0 1001.3 -0.3 82
2019-04-07 00:00:00 8.8 5 Sudoeste 10 Sudoeste 0 1001.6 0 78
2019-04-06 23:00:00 9.8 4 Oeste 10 Sur 0 1001.7 0.6 73
2019-04-06 22:00:00 11.2 5 Sur 12 Sudoeste 0 1001.6 0.6 66
2019-04-06 21:00:00 12.8 7 Sudoeste 23 Sudoeste 0 1001.6 1.2 61
2019-04-06 20:00:00 14.4 12 Sudoeste 33 Sudoeste 0 1001.1 0.9 55
2019-04-06 19:00:00 15.6 13 Sudoeste 37 Sudoeste 0 1001 1 45
2019-04-06 18:00:00 16.5 21 Sudoeste 40 Sudoeste 0 1000.4 0.5 39
2019-04-06 17:00:00 17.1 19 Sudoeste 40 Sudoeste 0 1000.2 0.1 41
2019-04-06 16:00:00 17.2 20 Sudoeste 38 Sudoeste 0 1000 0 41
2019-04-06 15:00:00 17.2 14 Sudoeste 34 Sudoeste 0 999.9 0 41
2019-04-06 14:00:00 16.5 13 Sudoeste 40 Sudoeste 0 1000.1 0.6 47
2019-04-06 13:00:00 17.2 19 Sudoeste 39 Sudoeste 0 1000 1 45
2019-04-06 12:00:00 15.5 11 Sudoeste 29 Sudoeste 0 999.9 1.4 49
2019-04-06 11:00:00 14.5 12 Sudoeste 29 Sudoeste 0 999.5 1.9 55
2019-04-06 10:00:00 13.1 13 Sudoeste 24 Sudoeste 0 999 1.5 67
2019-04-06 09:00:00 11.2 12 Sudoeste 35 Sudoeste 0 998.5 1.3 74
2019-04-06 08:00:00 10 13 Sudoeste 31 Sudoeste 0.2 997.6 1.3 81
2019-04-06 07:00:00 8 9 Sur 18 Sudoeste 0 997.5 1.2 94
2019-04-06 06:00:00 8.5 8 Sudoeste 19 Sudoeste 0 997.2 0 94
2019-04-06 05:00:00 9.7 8 Sudoeste 14 Sudoeste 0 996.3 -1.4 95
2019-04-06 04:00:00 10.5 3 Este 20 Sudoeste 2.6 996.3 -1 94
2019-04-06 03:00:00 10.6 6 Sur 9 Sur 0 997.2 -0.1 93
2019-04-06 02:00:00 10.8 4 Sur 13 Sur 0 997.7 0.3 92
2019-04-06 01:00:00 11.5 6 Sur 13 Sur 0 997.3 0 90
2019-04-06 00:00:00 12.9 6 Sur 23 Sur 0.6 997.3 0.1 87
2019-04-05 23:00:00 13.7 8 Sudoeste 25 Sur 0 997.4 0.1 82
2019-04-05 22:00:00 14.2 13 Sur 29 Sur 0 997.3 -0.3 74
2019-04-05 21:00:00 14.3 13 Sur 28 Sur 0 997.2 -0.6 73
2019-04-05 20:00:00 14.7 18 Sur 31 Sur 0 997.3 -0.6 72
2019-04-05 19:00:00 14.9 13 Sur 35 Sur 0.2 997.6 -0.9 73
2019-04-05 18:00:00 15.2 11 Sur 34 Sudeste 0.4 997.8 -1 74
2019-04-05 17:00:00 17 18 Sur 40 Sur 0 997.9 -1.2 54
2019-04-05 16:00:00 17.4 19 Sur 38 Sur 0 998.5 -1.2 48
2019-04-05 15:00:00 18 22 Sur 40 Sudoeste 0 998.8 -1.5 43
2019-04-05 14:00:00 19.3 15 Sudoeste 32 Sudoeste 0 999.1 -1.6 35
2019-04-05 13:00:00 19 14 Sudoeste 32 Sudoeste 0 999.7 -1.1 32
2019-04-05 12:00:00 17.6 12 Sudoeste 25 Sudoeste 0 1000.3 -0.5 38
2019-04-05 11:00:00 15.6 12 Sudoeste 25 Sudoeste 0 1000.7 0.2 45
2019-04-05 10:00:00 12.9 10 Sur 19 Sudoeste 0 1000.8 0.4 58
2019-04-05 09:00:00 7.7 6 Sur 12 Sur 0 1000.8 0.5 82
2019-04-05 08:00:00 3 4 Sudoeste 10 Sudoeste 0 1000.5 0 92
2019-04-05 07:00:00 3.3 6 Sudoeste 13 Sudoeste 0 1000.4 -0.3 92
2019-04-05 06:00:00 3.1 3 Sudoeste 12 Sudoeste 0 1000.3 -0.8 89
2019-04-05 05:00:00 3.6 7 Sur 16 Sudoeste 0 1000.5 -0.9 88
2019-04-05 04:00:00 4 8 Sudoeste 14 Sur 0 1000.7 -0.8 85
2019-04-05 03:00:00 4.4 4 Sur 8 Sur 0 1001.1 -0.4 81
2019-04-05 02:00:00 5.3 4 Sur 9 Oeste 0 1001.4 -0.3 77
2019-04-05 01:00:00 6.3 5 Sudoeste 10 Oeste 0 1001.5 0 72
2019-04-05 00:00:00 7.9 5 Oeste 13 Oeste 0 1001.5 0.4 67
2019-04-04 23:00:00 8.3 6 Oeste 12 Oeste 0 1001.7 1.1 63
2019-04-04 22:00:00 9.2 4 Noroeste 8 Noroeste 0 1001.5 1.4 58
2019-04-04 21:00:00 11.1 6 Sur 19 Este 0 1001.1 1.1 45
2019-04-04 20:00:00 13.3 16 Este 27 Este 0 1000.6 0.6 39
2019-04-04 19:00:00 16.5 8 Noroeste 25 Noroeste 0 1000.1 0.3 20
2019-04-04 18:00:00 17.2 12 Noroeste 24 Noroeste 0 1000 -0.4 16
2019-04-04 17:00:00 17.1 14 Noroeste 36 Noroeste 0 1000 -0.5 20
2019-04-04 16:00:00 16.7 17 Noroeste 31 Oeste 0 999.8 -1 23
2019-04-04 15:00:00 16 11 Oeste 38 Noroeste 0 1000.4 -0.3 29
2019-04-04 14:00:00 15.1 18 Noroeste 40 Noroeste 0 1000.5 0.5 33
2019-04-04 13:00:00 14.6 22 Noroeste 40 Noroeste 0 1000.8 1.6 32
2019-04-04 12:00:00 14.8 18 Noroeste 35 Noroeste 0 1000.7 2 37
2019-04-04 11:00:00 12.5 17 Noroeste 35 Noroeste 0 1000 2 53
2019-04-04 10:00:00 12.1 14 Noroeste 27 Noroeste 0 999.2 1.7 59
2019-04-04 09:00:00 10.5 5 Sudoeste 10 Sudoeste 0 998.7 1.3 73
2019-04-04 08:00:00 10.8 4 Sudoeste 15 Norte 0 998 0.7 68
2019-04-04 07:00:00 10.9 9 Norte 23 Norte 0 997.5 -0.1 66
2019-04-04 06:00:00 11.4 12 Norte 26 Norte 0 997.4 -1.2 62
2019-04-04 05:00:00 10.8 18 Nordeste 32 Nordeste 0 997.3 -2 69
2019-04-04 04:00:00 10.9 18 Nordeste 30 Nordeste 0 997.6 -2.1 76
2019-04-04 03:00:00 10.9 17 Norte 27 Nordeste 0 998.6 -0.4 81
2019-04-04 02:00:00 11.1 17 Nordeste 32 Norte 1 999.3 0.8 83
2019-04-04 01:00:00 11.7 17 Norte 40 Norte 0 999.7 2 82
2019-04-04 00:00:00 13.5 16 Norte 44 Norte 0 999 1.7 73
2019-04-03 23:00:00 14.1 14 Noroeste 31 Noroeste 0 998.5 1.2 75
2019-04-03 22:00:00 15.1 9 Sudoeste 20 Sudoeste 0 997.7 -0.2 78
2019-04-03 21:00:00 15.4 9 Sudoeste 17 Sudoeste 0 997.3 -1.2 75
2019-04-03 20:00:00 16.8 8 Sudoeste 21 Sudoeste 0 997.3 -1.7 67
2019-04-03 19:00:00 18.5 13 Sudoeste 30 Sudoeste 0 997.9 -1.8 59
2019-04-03 18:00:00 19.5 17 Sudoeste 34 Sudoeste 0 998.5 -2.1 57
2019-04-03 17:00:00 20.7 17 Sudoeste 38 Sudoeste 0 999 -2.5 55
2019-04-03 16:00:00 20.9 17 Sudoeste 35 Sudoeste 0 999.7 -3 52
2019-04-03 15:00:00 21 18 Sudoeste 38 Oeste 0 1000.6 -3.3 54
2019-04-03 14:00:00 20.3 17 Sudoeste 34 Sur 0 1001.5 -3 54
2019-04-03 13:00:00 19.5 15 Sudoeste 33 Sudoeste 0 1002.7 -2.1 58
2019-04-03 12:00:00 18.8 17 Sudoeste 35 Sudoeste 0 1003.9 -1.2 59
2019-04-03 11:00:00 16.6 12 Sur 27 Sudoeste 0 1004.5 -0.9 73
2019-04-03 10:00:00 16.2 14 Sur 25 Sudoeste 0 1004.8 -0.8 82
2019-04-03 09:00:00 14.3 9 Sudoeste 20 Sudoeste 0 1005.1 -0.9 94
2019-04-03 08:00:00 12.8 7 Sudoeste 17 Sudoeste 0 1005.4 -1.3 96
2019-04-03 07:00:00 12.4 8 Sudoeste 15 Sudoeste 0 1005.6 -1.7 96
2019-04-03 06:00:00 12.1 7 Sudeste 12 Sur 0 1006 -2.5 96
2019-04-03 05:00:00 11.8 4 Sur 7 Sur 0 1006.7 -2.4 95
2019-04-03 04:00:00 11.5 3 Sur 4 Sur 0 1007.3 -2.1 94
2019-04-03 03:00:00 11.7 3 Noroeste 6 Noroeste 0 1008.5 -1.2 94
2019-04-03 02:00:00 11.3 2 Nordeste 13 Sudoeste 0 1009.1 -0.7 92
2019-04-03 01:00:00 12.5 6 Sur 13 Sur 0 1009.4 -0.5 93
2019-04-03 00:00:00 12.8 7 Sur 13 Sur 0 1009.7 0.4 90
2019-04-02 23:00:00 12.5 3 Sur 9 Sur 0 1009.8 0.5 83
2019-04-02 22:00:00 13.8 5 Sur 14 Sur 0 1009.9 0.5 79
2019-04-02 21:00:00 14.8 7 Sur 14 Sur 0 1009.3 -0.3 75
2019-04-02 20:00:00 16.4 10 Sudoeste 17 Sudoeste 0 1009.3 -0.5 67
2019-04-02 19:00:00 17.7 8 Nordeste 19 Nordeste 0 1009.4 -0.6 64
2019-04-02 18:00:00 17.2 12 Nordeste 23 Nordeste 0 1009.6 -1 61
2019-04-02 17:00:00 17.8 12 Nordeste 27 Nordeste 0 1009.8 -1.3 61
2019-04-02 16:00:00 20.1 10 Nordeste 28 Sudoeste 0 1010 -1.6 54
2019-04-02 15:00:00 21.3 13 Sur 28 Sur 0 1010.6 -1.7 45
2019-04-02 14:00:00 20.9 13 Sur 32 Sur 0 1011.1 -1.1 46
2019-04-02 13:00:00 19.5 16 Sudoeste 31 Sur 0 1011.6 -0.4 51
2019-04-02 12:00:00 18.5 16 Sudoeste 32 Sur 0 1012.3 0 54
2019-04-02 11:00:00 16.9 12 Sudoeste 22 Sudoeste 0 1012.2 0.1 67
2019-04-02 10:00:00 13.7 5 Sudoeste 10 Sudoeste 0 1012 0.2 80
2019-04-02 09:00:00 8.8 5 Sur 10 Sur 0 1012.3 0.7 95
2019-04-02 08:00:00 6.3 7 Sur 11 Sur 0 1012.1 0.2 95
2019-04-02 07:00:00 6.3 7 Sudoeste 10 Sudoeste 0 1011.8 -0.3 95
2019-04-02 06:00:00 6.6 5 Sudoeste 9 Sudoeste 0 1011.6 -0.8 94
2019-04-02 05:00:00 7.2 6 Sudoeste 9 Sudoeste 0 1011.9 -0.6 93
2019-04-02 04:00:00 7.7 5 Sur 7 Sur 0 1012.1 -0.6 91
2019-04-02 03:00:00 8.1 4 Sudoeste 8 Sur 0 1012.4 -0.3 91
2019-04-02 02:00:00 8.3 3 Sudoeste 7 Sur 0 1012.5 -0.1 87
2019-04-02 01:00:00 9 3 Sur 10 Sudoeste 0 1012.7 0.2 85
2019-04-02 00:00:00 10 6 Sudoeste 8 Sur 0 1012.7 1 82
2019-04-01 23:00:00 11.3 4 Sudoeste 6 Sudoeste 0 1012.6 1.5 79
2019-04-01 22:00:00 12.8 2 Sudoeste 4 Oeste 0 1012.5 1.7 75
2019-04-01 21:00:00 14 2 Sudeste 9 Nordeste 0 1011.7 1 68
2019-04-01 20:00:00 14.9 5 Nordeste 17 Nordeste 0 1011.1 0.6 62
2019-04-01 19:00:00 16.3 10 Nordeste 21 Nordeste 0 1010.8 0.1 46
2019-04-01 18:00:00 18.3 12 Nordeste 24 Nordeste 0 1010.7 -0.2 38
2019-04-01 17:00:00 19.5 13 Nordeste 22 Norte 0 1010.5 -0.6 36
2019-04-01 16:00:00 19.1 10 Nordeste 24 Nordeste 0 1010.7 -0.7 38
2019-04-01 15:00:00 18.4 8 Nordeste 22 Norte 0 1010.9 -0.5 49
2019-04-01 14:00:00 18.3 14 Nordeste 25 Nordeste 0 1011.1 0.1 49
2019-04-01 13:00:00 16.5 12 Nordeste 19 Nordeste 0 1011.4 1 66
2019-04-01 12:00:00 15.4 12 Nordeste 21 Nordeste 0 1011.4 1.3 71
2019-04-01 11:00:00 15.2 10 Nordeste 17 Norte 0 1011 1.3 70
2019-04-01 10:00:00 14.2 9 Norte 15 Norte 0 1010.4 1.2 84
2019-04-01 09:00:00 13.1 6 Norte 10 Norte 0 1010.1 0.9 91
2019-04-01 08:00:00 12.2 6 Noroeste 10 Noroeste 0 1009.7 0.3 91
2019-04-01 07:00:00 12.3 6 Norte 9 Norte 0 1009.2 -0.2 91
2019-04-01 06:00:00 12.6 5 Noroeste 10 Nordeste 0 1009.2 -0.4 92
2019-04-01 05:00:00 12.7 6 Nordeste 15 Norte 0 1009.4 -0.4 92
2019-04-01 04:00:00 13 11 Norte 16 Norte 0 1009.4 -0.5 93
2019-04-01 03:00:00 12.9 7 Norte 14 Noroeste 0 1009.6 -0.8 94
2019-04-01 02:00:00 13 8 Norte 15 Norte 0 1009.8 -0.4 95
2019-04-01 01:00:00 13 8 Norte 13 Norte 0 1009.9 -0.1 95
2019-04-01 00:00:00 13.4 10 Nordeste 20 Norte 0.2 1010.4 0.6 95
2019-03-31 23:00:00 13.6 14 Nordeste 24 Norte 0.2 1010.2 0.4 95
2019-03-31 22:00:00 13.7 13 Nordeste 20 Norte 0.2 1010 0.3 95
2019-03-31 21:00:00 13.9 10 Nordeste 16 Nordeste 0.2 1009.8 0.2 94
2019-03-31 20:00:00 14.6 7 Nordeste 13 Nordeste 0.2 1009.8 0 91
2019-03-31 19:00:00 15.3 6 Este 17 Este 0.2 1009.7 -0.5 81
2019-03-31 18:00:00 16.3 11 Este 17 Este 0 1009.6 -1 72
2019-03-31 17:00:00 16.4 9 Nordeste 25 Este 0 1009.8 -1.2 73
2019-03-31 16:00:00 16.8 14 Sudeste 25 Sudeste 0 1010.2 -1.4 67
2019-03-31 15:00:00 18.6 14 Este 27 Sudeste 0 1010.6 -1.3 61
2019-03-31 14:00:00 19.2 13 Este 25 Nordeste 0 1011 -1 57
2019-03-31 13:00:00 18.4 15 Nordeste 24 Norte 0 1011.6 -0.5 61
2019-03-31 12:00:00 17.6 16 Nordeste 26 Nordeste 0 1011.9 -0.5 64
2019-03-31 11:00:00 17.4 12 Nordeste 19 Nordeste 0 1012 -0.5 68
2019-03-31 10:00:00 15.3 11 Norte 17 Norte 0 1012.1 -0.7 86
2019-03-31 09:00:00 13.2 5 Norte 11 Noroeste 0 1012.4 -0.6 96
2019-03-31 08:00:00 11 5 Noroeste 11 Norte 0 1012.5 -1.1 96
2019-03-31 07:00:00 11.4 7 Noroeste 10 Noroeste 0 1012.8 -1.6 96
2019-03-31 06:00:00 9.2 5 Noroeste 8 Noroeste 0 1013 -1.9 95
2019-03-31 05:00:00 8.9 3 Oeste 7 Noroeste 0 1013.6 -1.8 93
2019-03-31 03:00:00 10.4 3 Sudeste 10 Noroeste 0 1014.9 -1.7 89
2019-03-31 01:00:00 12.1 6 Noroeste 10 Noroeste 0 1015.4 -1.2 87
2019-03-31 00:00:00 12.3 2 Noroeste 6 Noroeste 0 1016.1 -0.8 84
2019-03-30 23:00:00 12.9 3 Noroeste 9 Noroeste 0 1016.6 0.1 83
2019-03-30 22:00:00 13.3 4 Nordeste 8 Norte 0 1016.6 0.6 81
2019-03-30 21:00:00 13.9 5 Nordeste 10 Nordeste 0 1016.9 0.7 80
2019-03-30 20:00:00 14.3 6 Nordeste 15 Nordeste 0 1016.5 0 78
2019-03-30 19:00:00 14.8 9 Nordeste 21 Nordeste 0 1016 -0.8 73
2019-03-30 18:00:00 16.4 12 Nordeste 24 Nordeste 0 1016.2 -1.4 67
2019-03-30 17:00:00 16.5 14 Nordeste 26 Nordeste 0 1016.5 -1.7 65
2019-03-30 16:00:00 16.9 13 Nordeste 26 Nordeste 0 1016.8 -1.9 62
2019-03-30 15:00:00 16.9 16 Nordeste 30 Nordeste 0 1017.6 -1.6 62
2019-03-30 14:00:00 18.5 17 Nordeste 32 Norte 0 1018.2 -1.5 55
2019-03-30 13:00:00 18 17 Nordeste 30 Norte 0 1018.7 -1.6 55
2019-03-30 12:00:00 17.8 13 Nordeste 28 Nordeste 0 1019.2 -1 52
2019-03-30 11:00:00 17.6 10 Nordeste 18 Nordeste 0 1019.7 -0.3 53
2019-03-30 10:00:00 16.3 8 Este 17 Norte 0 1020.3 0.3 56
2019-03-30 09:00:00 14.7 4 Nordeste 8 Nordeste 0 1020.2 0.2 65
2019-03-30 08:00:00 11.2 2 Sudeste 4 Sudeste 0 1020 -0.2 82
2019-03-30 07:00:00 8.6 3 Sudoeste 6 Sudeste 0 1020 -0.7 86
2019-03-30 06:00:00 9.2 3 Sur 10 Este 0 1020 -0.9 85
2019-03-30 05:00:00 9 7 Sudoeste 9 Oeste 0 1020.2 -1.4 87
2019-03-30 04:00:00 8.5 5 Sur 9 Sur 0 1020.7 -1.1 90
2019-03-30 03:00:00 7.8 5 Sudoeste 10 Oeste 0 1020.9 -1.1 91
2019-03-30 02:00:00 6.1 4 Sur 7 Oeste 0 1021.6 -0.6 90
2019-03-30 01:00:00 6.7 4 Sudoeste 7 Sur 0 1021.8 -0.5 87
2019-03-30 00:00:00 7 4 Sudoeste 8 Oeste 0 1022 0.1 83
2019-03-29 23:00:00 8.7 6 Sudoeste 9 Sudoeste 0 1022.2 0.5 81
2019-03-29 22:00:00 8.6 3 Sur 10 Noroeste 0 1022.3 0.7 78
2019-03-29 21:00:00 9.8 5 Nordeste 9 Norte 0 1021.9 0.5 74
2019-03-29 20:00:00 11.7 8 Norte 15 Norte 0 1021.7 0.1 67
2019-03-29 19:00:00 13.2 13 Nordeste 25 Nordeste 0 1021.6 -0.3 62
2019-03-29 18:00:00 15.5 16 Norte 28 Norte 0 1021.4 -1.1 54
2019-03-29 17:00:00 16.9 16 Nordeste 28 Nordeste 0 1021.6 -1.5 50
2019-03-29 16:00:00 17.4 15 Nordeste 28 Nordeste 0 1021.9 -1.6 44
2019-03-29 15:00:00 17.5 14 Norte 26 Nordeste 0 1022.5 -1.3 42
2019-03-29 14:00:00 17.9 15 Nordeste 27 Nordeste 0 1023.1 -1.1 39
2019-03-29 13:00:00 17.8 14 Nordeste 29 Nordeste 0 1023.5 -0.9 40
2019-03-29 12:00:00 17.6 14 Nordeste 30 Nordeste 0 1023.8 -0.5 43
2019-03-29 11:00:00 16.8 16 Nordeste 27 Nordeste 0 1024.2 0 50
2019-03-29 10:00:00 15.6 9 Nordeste 14 Nordeste 0 1024.4 0.4 61
2019-03-29 09:00:00 11.1 5 Sudeste 9 Sudoeste 0 1024.3 0.6 72
2019-03-29 08:00:00 5.2 5 Sur 12 Sur 0 1024.2 0.7 86
2019-03-29 07:00:00 2.6 5 Sudoeste 13 Sudoeste 0 1024 0.4 89
2019-03-29 06:00:00 2.6 6 Sur 13 Sudoeste 0 1023.7 0.1 89
2019-03-29 05:00:00 3.3 4 Sudoeste 12 Sudoeste 0 1023.5 -0.4 89
2019-03-29 04:00:00 3.3 7 Sudoeste 10 Sudoeste 0 1023.6 -0.5 88
2019-03-29 03:00:00 3.8 5 Sudoeste 7 Sudoeste 0 1023.6 -0.4 85
2019-03-29 02:00:00 4.6 3 Sudoeste 9 Sudoeste 0 1023.9 -0.3 85
2019-03-29 01:00:00 5.3 7 Sudoeste 10 Sudoeste 0 1024.1 -0.3 84
2019-03-29 00:00:00 6.2 6 Sur 11 Sur 0 1024 -0.2 81
2019-03-28 23:00:00 6.9 4 Sur 9 Sur 0 1024.2 0.5 78
2019-03-28 22:00:00 8.1 5 Sudoeste 9 Oeste 0 1024.4 1 76
2019-03-28 21:00:00 9.9 6 Oeste 9 Oeste 0 1024.2 1.2 72
2019-03-28 20:00:00 11.5 4 Nordeste 7 Este 0 1023.7 1.1 66
2019-03-28 19:00:00 13.8 5 Este 18 Nordeste 0 1023.4 0.6 58
2019-03-28 18:00:00 15.8 11 Este 23 Este 0 1023 0.1 50
2019-03-28 17:00:00 16.8 14 Nordeste 26 Este 0 1022.6 -0.6 48
2019-03-28 16:00:00 17.8 14 Nordeste 30 Nordeste 0 1022.8 -0.6 43
2019-03-28 15:00:00 17.8 17 Nordeste 31 Nordeste 0 1022.9 -0.7 41
2019-03-28 14:00:00 18.2 15 Nordeste 28 Nordeste 0 1023.2 -0.5 39
2019-03-28 13:00:00 17.7 18 Nordeste 31 Nordeste 0 1023.4 -0.1 43
2019-03-28 12:00:00 17.8 16 Nordeste 34 Norte 0 1023.6 0.4 40
2019-03-28 11:00:00 16.7 23 Nordeste 32 Nordeste 0 1023.7 0.7 39
2019-03-28 10:00:00 15.7 19 Norte 30 Norte 0 1023.5 0.9 48
2019-03-28 09:00:00 14.6 15 Norte 24 Norte 0 1023.2 0.9 53
2019-03-28 08:00:00 11.7 3 Nordeste 17 Norte 0 1023 1 70
2019-03-28 07:00:00 10.5 11 Norte 25 Norte 0 1022.6 0.9 73
2019-03-28 06:00:00 10.6 10 Norte 27 Norte 0 1022.3 0.6 72
2019-03-28 05:00:00 9.9 14 Norte 25 Norte 0 1022 0 73
2019-03-28 04:00:00 10.4 16 Norte 31 Norte 0 1021.7 -0.5 66
2019-03-28 03:00:00 8.4 14 Nordeste 22 Norte 0 1021.7 -0.2 73
2019-03-28 02:00:00 9.3 12 Norte 25 Norte 0 1022 0.2 73
2019-03-28 01:00:00 4.5 7 Este 12 Este 0 1022.2 0.6 84
2019-03-28 00:00:00 5.6 4 Sudoeste 8 Sudoeste 0 1021.9 0.2 79
2019-03-27 23:00:00 6 2 Sudoeste 5 Sudoeste 0 1021.8 0.8 76
2019-03-27 22:00:00 8.7 4 Norte 12 Norte 0 1021.6 1.3 69
2019-03-27 21:00:00 9.4 5 Norte 11 Noroeste 0 1021.7 1.9 68
2019-03-27 20:00:00 11.2 6 Norte 22 Nordeste 0 1021 1.2 64
2019-03-27 19:00:00 12.4 15 Nordeste 30 Norte 0 1020.3 0.3 60
2019-03-27 18:00:00 14.2 18 Nordeste 29 Norte 0 1019.8 -0.4 53
2019-03-27 17:00:00 15.7 18 Norte 31 Norte 0 1019.8 -0.5 42
2019-03-27 16:00:00 16.6 18 Norte 38 Nordeste 0 1020 -0.2 39
2019-03-27 15:00:00 16.5 19 Norte 37 Norte 0 1020.2 0.1 43
2019-03-27 14:00:00 16.2 23 Norte 45 Norte 0 1020.3 0.3 44
2019-03-27 13:00:00 16.5 24 Norte 40 Norte 0 1020.2 0.8 44
2019-03-27 12:00:00 16.3 23 Norte 36 Nordeste 0 1020.1 1 49
2019-03-27 11:00:00 15.7 24 Norte 40 Norte 0 1020 0.8 54
2019-03-27 10:00:00 14.9 25 Norte 43 Norte 0 1019.4 0.7 54
2019-03-27 09:00:00 14.2 24 Norte 41 Norte 0 1019.1 0.6 56
2019-03-27 08:00:00 12.7 16 Norte 32 Norte 0 1019.2 0.8 62
2019-03-27 07:00:00 11.6 19 Norte 36 Norte 0 1018.7 0 61
2019-03-27 06:00:00 11.8 22 Norte 43 Norte 0 1018.5 -0.5 56
2019-03-27 05:00:00 12.5 28 Norte 46 Norte 0 1018.4 -0.8 58
2019-03-27 04:00:00 11.9 19 Norte 34 Norte 0 1018.7 -0.6 56
2019-03-27 03:00:00 8 13 Norte 23 Norte 0 1019 -0.1 79
2019-03-27 02:00:00 4 3 Norte 8 Este 0 1019.2 0 81
2019-03-27 01:00:00 4.3 6 Sudoeste 9 Sudoeste 0 1019.3 0.2 79
2019-03-27 00:00:00 4.9 6 Noroeste 11 Sudoeste 0 1019.1 0.4 77